sensor_id;sensor_type;location;lat;lon;timestamp;P1;durP1;ratioP1;P2;durP2;ratioP2
58017;SDS011;43810;50.860;19.226;2024-01-16T00:00:35;13.32;;;2.63;;
58017;SDS011;43810;50.860;19.226;2024-01-16T00:03:21;6.03;;;3.88;;
58017;SDS011;43810;50.860;19.226;2024-01-16T00:05:47;7.75;;;4.22;;
58017;SDS011;43810;50.860;19.226;2024-01-16T00:08:14;4.70;;;4.15;;
58017;SDS011;43810;50.860;19.226;2024-01-16T00:10:40;4.57;;;3.08;;
58017;SDS011;43810;50.860;19.226;2024-01-16T00:13:06;12.73;;;3.97;;
58017;SDS011;43810;50.860;19.226;2024-01-16T00:15:31;6.13;;;3.65;;
58017;SDS011;43810;50.860;19.226;2024-01-16T00:17:57;7.38;;;3.97;;
58017;SDS011;43810;50.860;19.226;2024-01-16T00:20:23;7.18;;;4.32;;
58017;SDS011;43810;50.860;19.226;2024-01-16T00:22:50;4.82;;;3.47;;
58017;SDS011;43810;50.860;19.226;2024-01-16T00:25:17;7.57;;;4.53;;
58017;SDS011;43810;50.860;19.226;2024-01-16T00:27:45;7.72;;;2.60;;
58017;SDS011;43810;50.860;19.226;2024-01-16T00:30:12;3.55;;;1.65;;
58017;SDS011;43810;50.860;19.226;2024-01-16T00:32:38;3.85;;;2.65;;
58017;SDS011;43810;50.860;19.226;2024-01-16T00:35:05;2.08;;;1.83;;
58017;SDS011;43810;50.860;19.226;2024-01-16T00:37:30;1.58;;;1.33;;
58017;SDS011;43810;50.860;19.226;2024-01-16T00:39:56;2.75;;;1.92;;
58017;SDS011;43810;50.860;19.226;2024-01-16T00:42:22;4.00;;;2.00;;
58017;SDS011;43810;50.860;19.226;2024-01-16T00:44:48;8.15;;;2.47;;
58017;SDS011;43810;50.860;19.226;2024-01-16T00:47:13;3.80;;;2.42;;
58017;SDS011;43810;50.860;19.226;2024-01-16T00:49:39;6.47;;;2.63;;
58017;SDS011;43810;50.860;19.226;2024-01-16T00:52:05;3.58;;;3.28;;
58017;SDS011;43810;50.860;19.226;2024-01-16T00:54:32;4.40;;;3.38;;
58017;SDS011;43810;50.860;19.226;2024-01-16T00:56:58;4.45;;;2.28;;
58017;SDS011;43810;50.860;19.226;2024-01-16T00:59:25;2.28;;;1.55;;
58017;SDS011;43810;50.860;19.226;2024-01-16T01:01:51;6.63;;;3.05;;
58017;SDS011;43810;50.860;19.226;2024-01-16T01:04:17;3.95;;;2.85;;
58017;SDS011;43810;50.860;19.226;2024-01-16T01:06:43;9.93;;;2.60;;
58017;SDS011;43810;50.860;19.226;2024-01-16T01:09:09;1.73;;;1.50;;
58017;SDS011;43810;50.860;19.226;2024-01-16T01:11:37;3.20;;;1.70;;
58017;SDS011;43810;50.860;19.226;2024-01-16T01:14:04;3.13;;;2.42;;
58017;SDS011;43810;50.860;19.226;2024-01-16T01:16:29;10.10;;;2.83;;
58017;SDS011;43810;50.860;19.226;2024-01-16T01:18:56;5.20;;;4.00;;
58017;SDS011;43810;50.860;19.226;2024-01-16T01:21:21;8.38;;;5.20;;
58017;SDS011;43810;50.860;19.226;2024-01-16T01:23:47;6.03;;;4.15;;
58017;SDS011;43810;50.860;19.226;2024-01-16T01:26:13;4.63;;;3.45;;
58017;SDS011;43810;50.860;19.226;2024-01-16T01:28:40;9.18;;;5.22;;
58017;SDS011;43810;50.860;19.226;2024-01-16T01:31:08;8.07;;;2.75;;
58017;SDS011;43810;50.860;19.226;2024-01-16T01:33:35;8.25;;;3.25;;
58017;SDS011;43810;50.860;19.226;2024-01-16T01:36:00;6.15;;;3.17;;
58017;SDS011;43810;50.860;19.226;2024-01-16T01:38:26;2.83;;;2.63;;
58017;SDS011;43810;50.860;19.226;2024-01-16T01:40:52;5.13;;;3.05;;
58017;SDS011;43810;50.860;19.226;2024-01-16T01:43:21;2.72;;;2.35;;
58017;SDS011;43810;50.860;19.226;2024-01-16T01:45:56;6.53;;;3.13;;
58017;SDS011;43810;50.860;19.226;2024-01-16T01:48:22;5.53;;;2.20;;
58017;SDS011;43810;50.860;19.226;2024-01-16T01:50:48;2.65;;;2.47;;
58017;SDS011;43810;50.860;19.226;2024-01-16T01:53:14;6.30;;;2.75;;
58017;SDS011;43810;50.860;19.226;2024-01-16T01:55:40;7.43;;;3.55;;
58017;SDS011;43810;50.860;19.226;2024-01-16T01:58:07;6.07;;;2.80;;
58017;SDS011;43810;50.860;19.226;2024-01-16T02:00:33;4.47;;;2.75;;
58017;SDS011;43810;50.860;19.226;2024-01-16T02:02:59;5.78;;;2.58;;
58017;SDS011;43810;50.860;19.226;2024-01-16T02:05:25;3.00;;;2.38;;
58017;SDS011;43810;50.860;19.226;2024-01-16T02:07:53;6.03;;;2.20;;
58017;SDS011;43810;50.860;19.226;2024-01-16T02:10:18;2.92;;;2.58;;
58017;SDS011;43810;50.860;19.226;2024-01-16T02:12:44;3.63;;;2.63;;
58017;SDS011;43810;50.860;19.226;2024-01-16T02:15:10;2.58;;;2.30;;
58017;SDS011;43810;50.860;19.226;2024-01-16T02:17:36;4.55;;;2.80;;
58017;SDS011;43810;50.860;19.226;2024-01-16T02:20:01;5.00;;;4.25;;
58017;SDS011;43810;50.860;19.226;2024-01-16T02:22:27;5.22;;;3.00;;
58017;SDS011;43810;50.860;19.226;2024-01-16T02:24:57;8.40;;;2.85;;
58017;SDS011;43810;50.860;19.226;2024-01-16T02:27:23;5.47;;;2.92;;
58017;SDS011;43810;50.860;19.226;2024-01-16T02:29:49;3.15;;;2.40;;
58017;SDS011;43810;50.860;19.226;2024-01-16T02:32:15;4.05;;;3.67;;
58017;SDS011;43810;50.860;19.226;2024-01-16T02:34:41;4.45;;;2.88;;
58017;SDS011;43810;50.860;19.226;2024-01-16T02:37:07;4.63;;;3.08;;
58017;SDS011;43810;50.860;19.226;2024-01-16T02:39:33;3.97;;;3.33;;
58017;SDS011;43810;50.860;19.226;2024-01-16T02:41:59;6.85;;;3.42;;
58017;SDS011;43810;50.860;19.226;2024-01-16T02:44:25;8.68;;;4.15;;
58017;SDS011;43810;50.860;19.226;2024-01-16T02:46:51;3.65;;;2.78;;
58017;SDS011;43810;50.860;19.226;2024-01-16T02:49:16;5.43;;;2.45;;
58017;SDS011;43810;50.860;19.226;2024-01-16T02:51:42;3.88;;;2.08;;
58017;SDS011;43810;50.860;19.226;2024-01-16T02:54:08;6.88;;;4.00;;
58017;SDS011;43810;50.860;19.226;2024-01-16T02:56:34;5.47;;;3.17;;
58017;SDS011;43810;50.860;19.226;2024-01-16T02:59:00;5.68;;;3.40;;
58017;SDS011;43810;50.860;19.226;2024-01-16T03:01:26;3.75;;;2.92;;
58017;SDS011;43810;50.860;19.226;2024-01-16T03:03:52;8.93;;;2.92;;
58017;SDS011;43810;50.860;19.226;2024-01-16T03:06:24;10.50;;;2.70;;
58017;SDS011;43810;50.860;19.226;2024-01-16T03:08:51;7.90;;;2.67;;
58017;SDS011;43810;50.860;19.226;2024-01-16T03:11:17;2.47;;;2.22;;
58017;SDS011;43810;50.860;19.226;2024-01-16T03:13:43;3.28;;;2.50;;
58017;SDS011;43810;50.860;19.226;2024-01-16T03:16:12;4.13;;;2.85;;
58017;SDS011;43810;50.860;19.226;2024-01-16T03:18:38;3.83;;;2.60;;
58017;SDS011;43810;50.860;19.226;2024-01-16T03:21:05;5.50;;;2.22;;
58017;SDS011;43810;50.860;19.226;2024-01-16T03:23:31;5.20;;;2.97;;
58017;SDS011;43810;50.860;19.226;2024-01-16T03:25:57;4.30;;;2.50;;
58017;SDS011;43810;50.860;19.226;2024-01-16T03:28:23;11.20;;;3.20;;
58017;SDS011;43810;50.860;19.226;2024-01-16T03:30:49;5.80;;;3.15;;
58017;SDS011;43810;50.860;19.226;2024-01-16T03:33:15;7.32;;;3.17;;
58017;SDS011;43810;50.860;19.226;2024-01-16T03:35:41;4.03;;;2.38;;
58017;SDS011;43810;50.860;19.226;2024-01-16T03:38:06;7.15;;;3.85;;
58017;SDS011;43810;50.860;19.226;2024-01-16T03:40:32;4.50;;;2.13;;
58017;SDS011;43810;50.860;19.226;2024-01-16T03:43:00;3.70;;;3.00;;
58017;SDS011;43810;50.860;19.226;2024-01-16T03:45:26;4.65;;;2.70;;
58017;SDS011;43810;50.860;19.226;2024-01-16T03:47:51;5.18;;;2.72;;
58017;SDS011;43810;50.860;19.226;2024-01-16T03:50:17;4.28;;;2.58;;
58017;SDS011;43810;50.860;19.226;2024-01-16T03:52:43;1.80;;;1.70;;
58017;SDS011;43810;50.860;19.226;2024-01-16T03:55:09;2.95;;;2.63;;
58017;SDS011;43810;50.860;19.226;2024-01-16T03:57:34;2.10;;;1.95;;
58017;SDS011;43810;50.860;19.226;2024-01-16T04:00:00;3.60;;;2.42;;
58017;SDS011;43810;50.860;19.226;2024-01-16T04:02:26;13.77;;;3.63;;
58017;SDS011;43810;50.860;19.226;2024-01-16T04:04:52;19.20;;;4.25;;
58017;SDS011;43810;50.860;19.226;2024-01-16T04:07:18;7.22;;;3.42;;
58017;SDS011;43810;50.860;19.226;2024-01-16T04:09:44;12.02;;;3.75;;
58017;SDS011;43810;50.860;19.226;2024-01-16T04:12:09;4.95;;;3.03;;
58017;SDS011;43810;50.860;19.226;2024-01-16T04:14:35;2.38;;;1.67;;
58017;SDS011;43810;50.860;19.226;2024-01-16T04:17:01;3.80;;;3.35;;
58017;SDS011;43810;50.860;19.226;2024-01-16T04:19:27;12.65;;;4.25;;
58017;SDS011;43810;50.860;19.226;2024-01-16T04:21:53;13.95;;;3.60;;
58017;SDS011;43810;50.860;19.226;2024-01-16T04:24:19;13.93;;;4.80;;
58017;SDS011;43810;50.860;19.226;2024-01-16T04:26:45;21.58;;;5.65;;
58017;SDS011;43810;50.860;19.226;2024-01-16T04:29:11;13.45;;;5.45;;
58017;SDS011;43810;50.860;19.226;2024-01-16T04:31:40;11.70;;;5.65;;
58017;SDS011;43810;50.860;19.226;2024-01-16T04:34:07;6.90;;;4.03;;
58017;SDS011;43810;50.860;19.226;2024-01-16T04:36:32;5.82;;;2.63;;
58017;SDS011;43810;50.860;19.226;2024-01-16T04:38:58;2.80;;;2.08;;
58017;SDS011;43810;50.860;19.226;2024-01-16T04:41:24;6.75;;;3.28;;
58017;SDS011;43810;50.860;19.226;2024-01-16T04:43:50;7.10;;;3.25;;
58017;SDS011;43810;50.860;19.226;2024-01-16T04:46:15;8.23;;;3.80;;
58017;SDS011;43810;50.860;19.226;2024-01-16T04:48:42;5.00;;;2.50;;
58017;SDS011;43810;50.860;19.226;2024-01-16T04:51:08;21.73;;;4.10;;
58017;SDS011;43810;50.860;19.226;2024-01-16T04:53:34;3.40;;;2.78;;
58017;SDS011;43810;50.860;19.226;2024-01-16T04:55:59;6.72;;;3.50;;
58017;SDS011;43810;50.860;19.226;2024-01-16T04:58:26;5.18;;;3.88;;
58017;SDS011;43810;50.860;19.226;2024-01-16T05:00:51;12.07;;;5.13;;
58017;SDS011;43810;50.860;19.226;2024-01-16T05:03:17;6.82;;;4.47;;
58017;SDS011;43810;50.860;19.226;2024-01-16T05:05:43;10.43;;;3.72;;
58017;SDS011;43810;50.860;19.226;2024-01-16T05:08:09;9.80;;;3.25;;
58017;SDS011;43810;50.860;19.226;2024-01-16T05:10:35;11.65;;;3.65;;
58017;SDS011;43810;50.860;19.226;2024-01-16T05:13:01;4.57;;;4.13;;
58017;SDS011;43810;50.860;19.226;2024-01-16T05:15:26;3.50;;;3.28;;
58017;SDS011;43810;50.860;19.226;2024-01-16T05:17:52;14.45;;;3.33;;
58017;SDS011;43810;50.860;19.226;2024-01-16T05:20:18;6.35;;;3.92;;
58017;SDS011;43810;50.860;19.226;2024-01-16T05:22:45;8.68;;;4.18;;
58017;SDS011;43810;50.860;19.226;2024-01-16T05:25:10;8.27;;;3.70;;
58017;SDS011;43810;50.860;19.226;2024-01-16T05:27:36;9.20;;;4.20;;
58017;SDS011;43810;50.860;19.226;2024-01-16T05:30:02;4.45;;;3.20;;
58017;SDS011;43810;50.860;19.226;2024-01-16T05:32:28;5.72;;;2.50;;
58017;SDS011;43810;50.860;19.226;2024-01-16T05:34:54;4.43;;;3.38;;
58017;SDS011;43810;50.860;19.226;2024-01-16T05:37:20;7.10;;;3.20;;
58017;SDS011;43810;50.860;19.226;2024-01-16T05:39:45;4.22;;;2.17;;
58017;SDS011;43810;50.860;19.226;2024-01-16T05:42:11;7.13;;;3.83;;
58017;SDS011;43810;50.860;19.226;2024-01-16T05:44:37;3.80;;;3.45;;
58017;SDS011;43810;50.860;19.226;2024-01-16T05:47:04;4.38;;;1.95;;
58017;SDS011;43810;50.860;19.226;2024-01-16T05:49:30;2.58;;;2.13;;
58017;SDS011;43810;50.860;19.226;2024-01-16T05:51:56;7.15;;;3.42;;
58017;SDS011;43810;50.860;19.226;2024-01-16T05:54:21;4.07;;;2.20;;
58017;SDS011;43810;50.860;19.226;2024-01-16T05:56:47;3.05;;;2.35;;
58017;SDS011;43810;50.860;19.226;2024-01-16T05:59:13;4.28;;;2.90;;
58017;SDS011;43810;50.860;19.226;2024-01-16T06:01:39;3.40;;;2.38;;
58017;SDS011;43810;50.860;19.226;2024-01-16T06:04:04;4.85;;;2.15;;
58017;SDS011;43810;50.860;19.226;2024-01-16T06:06:30;3.13;;;2.72;;
58017;SDS011;43810;50.860;19.226;2024-01-16T06:08:56;4.15;;;2.75;;
58017;SDS011;43810;50.860;19.226;2024-01-16T06:11:33;5.70;;;4.65;;
58017;SDS011;43810;50.860;19.226;2024-01-16T06:14:00;3.20;;;2.85;;
58017;SDS011;43810;50.860;19.226;2024-01-16T06:16:26;3.25;;;2.40;;
58017;SDS011;43810;50.860;19.226;2024-01-16T06:18:51;4.05;;;3.05;;
58017;SDS011;43810;50.860;19.226;2024-01-16T06:21:17;5.68;;;3.10;;
58017;SDS011;43810;50.860;19.226;2024-01-16T06:23:43;13.80;;;4.18;;
58017;SDS011;43810;50.860;19.226;2024-01-16T06:26:09;5.57;;;3.55;;
58017;SDS011;43810;50.860;19.226;2024-01-16T06:28:35;3.47;;;2.83;;
58017;SDS011;43810;50.860;19.226;2024-01-16T06:31:01;5.75;;;2.92;;
58017;SDS011;43810;50.860;19.226;2024-01-16T06:33:27;23.45;;;7.05;;
58017;SDS011;43810;50.860;19.226;2024-01-16T06:35:56;7.88;;;4.25;;
58017;SDS011;43810;50.860;19.226;2024-01-16T06:38:21;13.38;;;7.22;;
58017;SDS011;43810;50.860;19.226;2024-01-16T06:40:47;17.73;;;9.13;;
58017;SDS011;43810;50.860;19.226;2024-01-16T06:43:14;15.70;;;5.85;;
58017;SDS011;43810;50.860;19.226;2024-01-16T06:45:43;8.70;;;4.90;;
58017;SDS011;43810;50.860;19.226;2024-01-16T06:48:09;13.82;;;5.43;;
58017;SDS011;43810;50.860;19.226;2024-01-16T06:50:36;11.77;;;5.28;;
58017;SDS011;43810;50.860;19.226;2024-01-16T06:53:02;14.93;;;6.55;;
58017;SDS011;43810;50.860;19.226;2024-01-16T06:55:28;6.78;;;4.07;;
58017;SDS011;43810;50.860;19.226;2024-01-16T06:57:53;16.85;;;5.20;;
58017;SDS011;43810;50.860;19.226;2024-01-16T07:00:19;13.30;;;7.72;;
58017;SDS011;43810;50.860;19.226;2024-01-16T07:02:48;9.73;;;5.45;;
58017;SDS011;43810;50.860;19.226;2024-01-16T07:05:14;11.05;;;6.22;;
58017;SDS011;43810;50.860;19.226;2024-01-16T07:07:39;11.00;;;4.57;;
58017;SDS011;43810;50.860;19.226;2024-01-16T07:10:06;13.98;;;6.13;;
58017;SDS011;43810;50.860;19.226;2024-01-16T07:12:43;11.70;;;5.03;;
58017;SDS011;43810;50.860;19.226;2024-01-16T07:15:10;9.93;;;8.05;;
58017;SDS011;43810;50.860;19.226;2024-01-16T07:17:35;16.88;;;6.80;;
58017;SDS011;43810;50.860;19.226;2024-01-16T07:20:01;13.35;;;6.43;;
58017;SDS011;43810;50.860;19.226;2024-01-16T07:22:28;14.73;;;4.60;;
58017;SDS011;43810;50.860;19.226;2024-01-16T07:24:54;15.85;;;7.47;;
58017;SDS011;43810;50.860;19.226;2024-01-16T07:27:19;11.90;;;6.78;;
58017;SDS011;43810;50.860;19.226;2024-01-16T07:29:45;6.45;;;5.22;;
58017;SDS011;43810;50.860;19.226;2024-01-16T07:32:11;17.13;;;8.95;;
58017;SDS011;43810;50.860;19.226;2024-01-16T07:34:37;8.25;;;5.95;;
58017;SDS011;43810;50.860;19.226;2024-01-16T07:37:02;5.53;;;4.88;;
58017;SDS011;43810;50.860;19.226;2024-01-16T07:39:28;7.20;;;4.68;;
58017;SDS011;43810;50.860;19.226;2024-01-16T07:41:54;14.02;;;7.13;;
58017;SDS011;43810;50.860;19.226;2024-01-16T07:44:20;9.77;;;4.50;;
58017;SDS011;43810;50.860;19.226;2024-01-16T07:46:46;13.77;;;6.30;;
58017;SDS011;43810;50.860;19.226;2024-01-16T07:49:12;15.20;;;7.07;;
58017;SDS011;43810;50.860;19.226;2024-01-16T07:51:37;19.52;;;7.93;;
58017;SDS011;43810;50.860;19.226;2024-01-16T07:54:09;12.23;;;4.63;;
58017;SDS011;43810;50.860;19.226;2024-01-16T07:56:36;7.45;;;3.70;;
58017;SDS011;43810;50.860;19.226;2024-01-16T07:59:03;6.15;;;4.07;;
58017;SDS011;43810;50.860;19.226;2024-01-16T08:01:29;14.88;;;4.93;;
58017;SDS011;43810;50.860;19.226;2024-01-16T08:03:55;8.50;;;3.63;;
58017;SDS011;43810;50.860;19.226;2024-01-16T08:06:21;26.38;;;8.73;;
58017;SDS011;43810;50.860;19.226;2024-01-16T08:08:48;3.67;;;3.20;;
58017;SDS011;43810;50.860;19.226;2024-01-16T08:11:14;11.68;;;6.03;;
58017;SDS011;43810;50.860;19.226;2024-01-16T08:13:40;8.13;;;4.75;;
58017;SDS011;43810;50.860;19.226;2024-01-16T08:16:06;10.88;;;3.67;;
58017;SDS011;43810;50.860;19.226;2024-01-16T08:18:36;9.43;;;4.82;;
58017;SDS011;43810;50.860;19.226;2024-01-16T08:21:02;9.77;;;3.70;;
58017;SDS011;43810;50.860;19.226;2024-01-16T08:23:28;6.38;;;3.50;;
58017;SDS011;43810;50.860;19.226;2024-01-16T08:25:54;14.43;;;5.55;;
58017;SDS011;43810;50.860;19.226;2024-01-16T08:28:20;12.30;;;6.53;;
58017;SDS011;43810;50.860;19.226;2024-01-16T08:30:46;15.70;;;6.30;;
58017;SDS011;43810;50.860;19.226;2024-01-16T08:33:12;14.63;;;6.72;;
58017;SDS011;43810;50.860;19.226;2024-01-16T08:35:38;8.02;;;5.75;;
58017;SDS011;43810;50.860;19.226;2024-01-16T08:38:04;17.92;;;8.77;;
58017;SDS011;43810;50.860;19.226;2024-01-16T08:40:30;29.20;;;10.35;;
58017;SDS011;43810;50.860;19.226;2024-01-16T08:42:56;20.52;;;8.25;;
58017;SDS011;43810;50.860;19.226;2024-01-16T08:45:22;15.35;;;6.95;;
58017;SDS011;43810;50.860;19.226;2024-01-16T08:47:48;12.18;;;6.30;;
58017;SDS011;43810;50.860;19.226;2024-01-16T08:50:15;9.80;;;6.10;;
58017;SDS011;43810;50.860;19.226;2024-01-16T08:52:41;7.38;;;4.80;;
58017;SDS011;43810;50.860;19.226;2024-01-16T08:55:07;6.50;;;5.63;;
58017;SDS011;43810;50.860;19.226;2024-01-16T08:57:36;13.18;;;5.43;;
58017;SDS011;43810;50.860;19.226;2024-01-16T09:00:05;11.27;;;6.32;;
58017;SDS011;43810;50.860;19.226;2024-01-16T09:02:31;15.88;;;9.77;;
58017;SDS011;43810;50.860;19.226;2024-01-16T09:04:57;12.15;;;5.18;;
58017;SDS011;43810;50.860;19.226;2024-01-16T09:07:24;7.28;;;4.50;;
58017;SDS011;43810;50.860;19.226;2024-01-16T09:09:50;18.52;;;4.18;;
58017;SDS011;43810;50.860;19.226;2024-01-16T09:12:16;5.40;;;4.15;;
58017;SDS011;43810;50.860;19.226;2024-01-16T09:14:43;5.75;;;4.30;;
58017;SDS011;43810;50.860;19.226;2024-01-16T09:17:08;9.55;;;5.93;;
58017;SDS011;43810;50.860;19.226;2024-01-16T09:19:34;12.25;;;4.47;;
58017;SDS011;43810;50.860;19.226;2024-01-16T09:22:00;9.18;;;4.72;;
58017;SDS011;43810;50.860;19.226;2024-01-16T09:24:26;9.43;;;5.32;;
58017;SDS011;43810;50.860;19.226;2024-01-16T09:26:54;8.23;;;4.32;;
58017;SDS011;43810;50.860;19.226;2024-01-16T09:29:20;7.78;;;5.15;;
58017;SDS011;43810;50.860;19.226;2024-01-16T09:31:47;8.40;;;4.22;;
58017;SDS011;43810;50.860;19.226;2024-01-16T09:34:16;12.15;;;4.72;;
58017;SDS011;43810;50.860;19.226;2024-01-16T09:36:43;13.82;;;5.22;;
58017;SDS011;43810;50.860;19.226;2024-01-16T09:39:09;17.13;;;5.88;;
58017;SDS011;43810;50.860;19.226;2024-01-16T09:41:37;12.77;;;6.38;;
58017;SDS011;43810;50.860;19.226;2024-01-16T09:44:07;13.43;;;5.63;;
58017;SDS011;43810;50.860;19.226;2024-01-16T09:46:34;9.73;;;5.80;;
58017;SDS011;43810;50.860;19.226;2024-01-16T09:49:03;7.43;;;5.57;;
58017;SDS011;43810;50.860;19.226;2024-01-16T09:51:29;13.35;;;5.68;;
58017;SDS011;43810;50.860;19.226;2024-01-16T09:53:55;22.45;;;4.75;;
58017;SDS011;43810;50.860;19.226;2024-01-16T09:56:21;10.07;;;5.50;;
58017;SDS011;43810;50.860;19.226;2024-01-16T09:58:50;9.73;;;5.43;;
58017;SDS011;43810;50.860;19.226;2024-01-16T10:03:48;14.32;;;4.55;;
58017;SDS011;43810;50.860;19.226;2024-01-16T10:06:14;11.48;;;6.43;;
58017;SDS011;43810;50.860;19.226;2024-01-16T10:08:43;22.92;;;4.70;;
58017;SDS011;43810;50.860;19.226;2024-01-16T10:11:10;7.68;;;3.95;;
58017;SDS011;43810;50.860;19.226;2024-01-16T10:13:35;4.97;;;3.53;;
58017;SDS011;43810;50.860;19.226;2024-01-16T10:16:02;17.33;;;5.25;;
58017;SDS011;43810;50.860;19.226;2024-01-16T10:18:29;6.15;;;2.95;;
58017;SDS011;43810;50.860;19.226;2024-01-16T10:20:59;3.00;;;2.70;;
58017;SDS011;43810;50.860;19.226;2024-01-16T10:23:26;6.60;;;2.95;;
58017;SDS011;43810;50.860;19.226;2024-01-16T10:26:09;8.05;;;3.50;;
58017;SDS011;43810;50.860;19.226;2024-01-16T10:28:36;10.90;;;3.83;;
58017;SDS011;43810;50.860;19.226;2024-01-16T10:31:07;5.20;;;3.33;;
58017;SDS011;43810;50.860;19.226;2024-01-16T10:33:34;6.13;;;2.58;;
58017;SDS011;43810;50.860;19.226;2024-01-16T10:36:13;6.32;;;3.08;;
58017;SDS011;43810;50.860;19.226;2024-01-16T10:38:42;10.75;;;4.43;;
58017;SDS011;43810;50.860;19.226;2024-01-16T10:41:15;4.57;;;3.22;;
58017;SDS011;43810;50.860;19.226;2024-01-16T10:43:55;15.40;;;5.43;;
58017;SDS011;43810;50.860;19.226;2024-01-16T10:46:32;5.23;;;3.73;;
58017;SDS011;43810;50.860;19.226;2024-01-16T10:48:59;4.00;;;2.42;;
58017;SDS011;43810;50.860;19.226;2024-01-16T10:51:27;6.15;;;2.60;;
58017;SDS011;43810;50.860;19.226;2024-01-16T10:53:57;9.02;;;3.85;;
58017;SDS011;43810;50.860;19.226;2024-01-16T10:56:26;3.20;;;2.67;;
58017;SDS011;43810;50.860;19.226;2024-01-16T10:58:57;7.95;;;3.97;;
58017;SDS011;43810;50.860;19.226;2024-01-16T11:01:27;4.80;;;2.92;;
58017;SDS011;43810;50.860;19.226;2024-01-16T11:03:53;6.43;;;4.07;;
58017;SDS011;43810;50.860;19.226;2024-01-16T11:06:22;5.20;;;2.60;;
58017;SDS011;43810;50.860;19.226;2024-01-16T11:08:49;6.90;;;3.63;;
58017;SDS011;43810;50.860;19.226;2024-01-16T11:11:15;11.85;;;4.25;;
58017;SDS011;43810;50.860;19.226;2024-01-16T11:13:41;6.78;;;4.82;;
58017;SDS011;43810;50.860;19.226;2024-01-16T11:16:12;4.85;;;2.95;;
58017;SDS011;43810;50.860;19.226;2024-01-16T11:18:38;6.35;;;4.25;;
58017;SDS011;43810;50.860;19.226;2024-01-16T11:21:06;9.95;;;3.70;;
58017;SDS011;43810;50.860;19.226;2024-01-16T11:23:34;5.75;;;2.65;;
58017;SDS011;43810;50.860;19.226;2024-01-16T11:26:22;4.88;;;3.20;;
58017;SDS011;43810;50.860;19.226;2024-01-16T11:28:50;6.22;;;3.05;;
58017;SDS011;43810;50.860;19.226;2024-01-16T11:31:31;7.82;;;3.60;;
58017;SDS011;43810;50.860;19.226;2024-01-16T11:33:59;10.65;;;4.07;;
58017;SDS011;43810;50.860;19.226;2024-01-16T11:39:11;8.02;;;3.80;;
58017;SDS011;43810;50.860;19.226;2024-01-16T11:41:50;11.57;;;5.07;;
58017;SDS011;43810;50.860;19.226;2024-01-16T11:49:43;3.78;;;2.90;;
58017;SDS011;43810;50.860;19.226;2024-01-16T11:52:10;6.80;;;3.42;;
58017;SDS011;43810;50.860;19.226;2024-01-16T11:54:38;7.40;;;3.67;;
58017;SDS011;43810;50.860;19.226;2024-01-16T12:00:21;19.27;;;6.65;;
58017;SDS011;43810;50.860;19.226;2024-01-16T12:02:53;8.27;;;5.03;;
58017;SDS011;43810;50.860;19.226;2024-01-16T12:05:21;7.07;;;4.35;;
58017;SDS011;43810;50.860;19.226;2024-01-16T12:07:48;9.35;;;4.43;;
58017;SDS011;43810;50.860;19.226;2024-01-16T12:10:19;16.65;;;5.40;;
58017;SDS011;43810;50.860;19.226;2024-01-16T12:12:48;15.85;;;6.72;;
58017;SDS011;43810;50.860;19.226;2024-01-16T12:15:15;22.25;;;6.93;;
58017;SDS011;43810;50.860;19.226;2024-01-16T12:18:00;11.98;;;4.20;;
58017;SDS011;43810;50.860;19.226;2024-01-16T12:20:28;4.60;;;2.35;;
58017;SDS011;43810;50.860;19.226;2024-01-16T12:22:56;14.23;;;4.05;;
58017;SDS011;43810;50.860;19.226;2024-01-16T12:25:26;5.55;;;3.03;;
58017;SDS011;43810;50.860;19.226;2024-01-16T12:27:56;8.93;;;4.18;;
58017;SDS011;43810;50.860;19.226;2024-01-16T12:30:23;1.50;;;1.40;;
58017;SDS011;43810;50.860;19.226;2024-01-16T12:33:04;1.77;;;1.48;;
58017;SDS011;43810;50.860;19.226;2024-01-16T12:35:38;3.85;;;2.08;;
58017;SDS011;43810;50.860;19.226;2024-01-16T12:38:09;7.07;;;2.42;;
58017;SDS011;43810;50.860;19.226;2024-01-16T12:40:36;2.25;;;1.77;;
58017;SDS011;43810;50.860;19.226;2024-01-16T12:43:15;6.43;;;2.65;;
58017;SDS011;43810;50.860;19.226;2024-01-16T12:45:42;5.70;;;3.17;;
58017;SDS011;43810;50.860;19.226;2024-01-16T12:48:10;9.73;;;4.78;;
58017;SDS011;43810;50.860;19.226;2024-01-16T12:50:36;9.60;;;3.92;;
58017;SDS011;43810;50.860;19.226;2024-01-16T12:55:30;5.00;;;3.85;;
58017;SDS011;43810;50.860;19.226;2024-01-16T13:00:52;4.18;;;3.17;;
58017;SDS011;43810;50.860;19.226;2024-01-16T13:03:21;6.55;;;3.22;;
58017;SDS011;43810;50.860;19.226;2024-01-16T13:05:59;7.95;;;3.20;;
58017;SDS011;43810;50.860;19.226;2024-01-16T13:08:26;6.03;;;4.28;;
58017;SDS011;43810;50.860;19.226;2024-01-16T13:11:05;10.75;;;4.32;;
58017;SDS011;43810;50.860;19.226;2024-01-16T13:13:32;9.63;;;2.53;;
58017;SDS011;43810;50.860;19.226;2024-01-16T13:15:59;10.20;;;3.42;;
58017;SDS011;43810;50.860;19.226;2024-01-16T13:18:27;10.82;;;4.45;;
58017;SDS011;43810;50.860;19.226;2024-01-16T13:20:54;9.65;;;4.85;;
58017;SDS011;43810;50.860;19.226;2024-01-16T13:23:22;7.70;;;3.78;;
58017;SDS011;43810;50.860;19.226;2024-01-16T13:25:50;17.20;;;7.40;;
58017;SDS011;43810;50.860;19.226;2024-01-16T13:28:17;19.48;;;6.88;;
58017;SDS011;43810;50.860;19.226;2024-01-16T13:30:45;7.15;;;3.75;;
58017;SDS011;43810;50.860;19.226;2024-01-16T13:33:13;18.13;;;4.28;;
58017;SDS011;43810;50.860;19.226;2024-01-16T13:35:40;10.02;;;4.68;;
58017;SDS011;43810;50.860;19.226;2024-01-16T13:38:07;12.95;;;4.18;;
58017;SDS011;43810;50.860;19.226;2024-01-16T13:40:33;17.90;;;7.55;;
58017;SDS011;43810;50.860;19.226;2024-01-16T13:43:01;17.52;;;7.60;;
58017;SDS011;43810;50.860;19.226;2024-01-16T13:45:27;18.25;;;5.43;;
58017;SDS011;43810;50.860;19.226;2024-01-16T13:47:57;7.47;;;5.30;;
58017;SDS011;43810;50.860;19.226;2024-01-16T13:50:23;10.95;;;5.22;;
58017;SDS011;43810;50.860;19.226;2024-01-16T13:52:49;14.05;;;6.32;;
58017;SDS011;43810;50.860;19.226;2024-01-16T13:55:16;11.70;;;5.95;;
58017;SDS011;43810;50.860;19.226;2024-01-16T13:57:43;13.07;;;5.35;;
58017;SDS011;43810;50.860;19.226;2024-01-16T14:00:11;13.30;;;5.55;;
58017;SDS011;43810;50.860;19.226;2024-01-16T14:02:45;7.83;;;4.10;;
58017;SDS011;43810;50.860;19.226;2024-01-16T14:05:12;9.80;;;6.57;;
58017;SDS011;43810;50.860;19.226;2024-01-16T14:07:47;20.00;;;8.77;;
58017;SDS011;43810;50.860;19.226;2024-01-16T14:10:16;18.10;;;7.95;;
58017;SDS011;43810;50.860;19.226;2024-01-16T14:12:43;18.00;;;7.05;;
58017;SDS011;43810;50.860;19.226;2024-01-16T14:15:13;20.70;;;9.27;;
58017;SDS011;43810;50.860;19.226;2024-01-16T15:01:57;20.08;;;7.13;;
58017;SDS011;43810;50.860;19.226;2024-01-16T15:04:23;14.10;;;7.47;;
58017;SDS011;43810;50.860;19.226;2024-01-16T15:06:48;13.70;;;6.65;;
58017;SDS011;43810;50.860;19.226;2024-01-16T15:09:16;21.73;;;7.60;;
58017;SDS011;43810;50.860;19.226;2024-01-16T15:11:42;17.92;;;10.43;;
58017;SDS011;43810;50.860;19.226;2024-01-16T15:14:10;29.85;;;12.98;;
58017;SDS011;43810;50.860;19.226;2024-01-16T15:16:37;29.35;;;16.13;;
58017;SDS011;43810;50.860;19.226;2024-01-16T15:19:03;63.28;;;23.70;;
58017;SDS011;43810;50.860;19.226;2024-01-16T15:21:29;66.80;;;18.60;;
58017;SDS011;43810;50.860;19.226;2024-01-16T15:23:56;57.42;;;16.42;;
58017;SDS011;43810;50.860;19.226;2024-01-16T15:26:21;52.67;;;12.40;;
58017;SDS011;43810;50.860;19.226;2024-01-16T15:28:47;22.95;;;15.57;;
58017;SDS011;43810;50.860;19.226;2024-01-16T16:11:42;16.02;;;10.23;;
58017;SDS011;43810;50.860;19.226;2024-01-16T16:14:13;14.90;;;8.65;;